Latest Weather Observations for Tibooburra Airport

IDN60801

Issued at 11:23 am EDT Monday 26 October 2020 (issued every 10 minutes, with the page automatically refreshed every 10 minutes)

About weather observations | Map of weather stations | Latest weather observations for NSW | Other Formats
Station Details ID: 046126 Name: TIBOOBURRA AIRPORT Lat: -29.44 Lon: 142.06 Height: 176.4 m
Data from the previous 72 hours. | See also: Recent months at Tibooburra Airport
Date/Time
EDT
Temp
°C
App
Temp
°C
Dew
Point
°C
Rel
Hum
%
Delta-T
°C
Wind Press
QNH
hPa
Press
MSL
hPa
Rain since
9am
mm
Dir  Spd
km/h
Gust
km/h
Spd
kts
Gust
kts
26/11:00am 16.3 11.9 -2.2 28 7.6 S 11 22 6 12 1018.1 1017.4 0.0
26/10:30am 15.7 9.8 -2.3 29 7.4 SSE 19 24 10 13 1018.4 1017.7 0.0
26/10:00am 16.0 11.0 -1.5 30 7.3 SSE 15 22 8 12 1018.4 1017.7 0.0
26/09:30am 14.5 9.9 -1.2 34 6.5 SSW 13 19 7 10 1018.3 1017.6 0.0
26/09:00am 13.5 8.1 -1.3 36 6.0 SSW 17 24 9 13 1018.2 1017.5 0.0
26/08:30am 12.9 7.2 -0.7 39 5.6 SSW 19 22 10 12 1018.0 1017.3 0.0
26/08:00am 11.4 6.5 -0.7 43 4.9 SSW 15 19 8 10 1017.8 1017.1 0.0
26/07:30am 10.1 5.6 -0.4 48 4.2 SW 13 15 7 8 1017.5 1016.8 0.0
26/07:00am 9.4 4.9 -0.5 50 3.9 SSW 13 15 7 8 1017.1 1016.4 0.0
26/06:30am 9.6 4.7 -0.6 49 4.1 S 15 19 8 10 1016.7 1016.0 0.0
26/06:00am 9.6 4.7 -0.6 49 4.1 SSW 15 20 8 11 1016.4 1015.7 0.0
26/05:30am 9.6 4.7 -0.3 50 4.0 SW 15 19 8 10 1016.1 1015.5 0.0
26/05:00am 10.0 4.8 -0.2 49 4.1 SW 17 19 9 10 1016.1 1015.5 0.0
26/04:30am 10.4 5.5 -0.4 47 4.4 SSW 15 20 8 11 1016.0 1015.4 0.0
26/04:00am 10.6 5.4 -0.2 47 4.4 SSW 17 20 9 11 1016.0 1015.4 0.0
26/03:30am 10.9 5.2 -0.5 45 4.6 SSW 19 22 10 12 1015.9 1015.3 0.0
26/03:00am 11.5 5.6 -0.6 43 4.9 SSW 20 28 11 15 1016.1 1015.5 0.0
26/02:30am 11.9 5.6 -0.9 41 5.2 SSW 22 30 12 16 1016.4 1015.7 0.0
26/02:00am 12.4 5.7 -1.1 39 5.5 S 24 33 13 18 1016.6 1015.9 0.0
26/01:30am 12.8 6.1 -0.8 39 5.6 S 24 32 13 17 1016.8 1016.1 0.0
26/01:00am 13.1 7.2 -0.9 38 5.7 S 20 30 11 16 1017.1 1016.4 0.0
26/12:30am 13.4 7.6 -0.3 39 5.7 S 20 28 11 15 1017.5 1016.8 0.0
26/12:00am 13.9 7.7 -0.2 38 5.9 S 22 30 12 16 1017.7 1017.0 0.0
 
Date/Time
EDT
Temp
°C
App
Temp
°C
Dew
Point
°C
Rel
Hum
%
Delta-T
°C
Wind Press
QNH
hPa
Press
MSL
hPa
Rain since
9am
mm
Dir  Spd
km/h
Gust
km/h
Spd
kts
Gust
kts
25/11:30pm 14.3 8.1 -0.2 37 6.1 S 22 30 12 16 1017.8 1017.1 0.0
25/11:00pm 14.6 8.4 -0.3 36 6.3 SSW 22 30 12 16 1017.9 1017.2 0.0
25/10:30pm 14.9 9.2 -0.4 35 6.5 SSW 19 24 10 13 1018.0 1017.3 0.0
25/10:00pm 15.3 9.5 -0.4 34 6.6 SSW 20 26 11 14 1017.9 1017.2 0.0
25/09:30pm 15.8 9.6 -0.4 33 6.9 SSW 22 28 12 15 1017.6 1016.9 0.0
25/09:00pm 16.1 9.8 -1.0 31 7.2 SSW 22 30 12 16 1017.3 1016.6 0.0
25/08:30pm 16.5 10.6 -0.7 31 7.3 SSW 20 26 11 14 1017.0 1016.3 0.0
25/08:00pm 16.7 10.8 -0.9 30 7.5 S 20 28 11 15 1016.7 1016.0 0.0
25/07:30pm 17.2 11.0 -0.5 30 7.6 S 22 32 12 17 1016.4 1015.7 0.0
25/07:00pm 17.6 10.5 -1.1 28 8.0 SSW 26 35 14 19 1016.1 1015.5 0.0
25/06:30pm 18.4 12.2 -0.4 28 8.2 SSW 22 32 12 17 1015.7 1015.1 0.0
25/06:00pm 19.0 12.8 -0.4 27 8.5 SSW 22 33 12 18 1015.7 1015.1 0.0
25/05:30pm 19.0 12.4 -0.4 27 8.5 SSW 24 35 13 19 1015.4 1014.8 0.0
25/05:00pm 18.7 12.0 -1.2 26 8.6 SSW 24 37 13 20 1015.4 1014.8 0.0
25/04:30pm 18.8 11.8 -0.6 27 8.5 S 26 41 14 22 1015.4 1014.8 0.0
25/04:00pm 18.3 11.6 -1.0 27 8.3 S 24 33 13 18 1015.6 1015.0 0.0
25/03:30pm 19.5 13.0 0.0 27 8.7 S 24 39 13 21 1015.8 1015.2 0.0
25/03:00pm 18.2 11.6 -0.1 29 8.0 SSW 24 37 13 20 1016.1 1015.5 0.0
25/02:30pm 18.5 12.4 0.6 30 8.0 SW 22 33 12 18 1016.5 1015.8 0.0
25/02:00pm 18.2 12.2 0.8 31 7.8 SSW 22 39 12 21 1016.8 1016.1 0.0
25/01:30pm 17.7 10.8 0.4 31 7.6 SSW 26 37 14 20 1016.9 1016.2 0.0
25/01:00pm 16.6 10.1 0.3 33 7.1 S 24 37 13 20 1017.3 1016.6 0.0
25/12:30pm 16.3 10.2 0.4 34 6.9 S 22 33 12 18 1017.6 1016.9 0.0
25/12:00pm 16.7 11.2 1.6 36 6.7 S 20 33 11 18 1018.0 1017.3 0.0
25/11:30am 15.6 8.1 1.0 37 6.4 S 30 43 16 23 1018.1 1017.4 0.0
25/11:00am 16.0 9.1 2.8 41 6.0 SSE 28 39 15 21 1018.2 1017.5 0.0
25/10:30am 15.1 8.3 3.0 44 5.5 SSE 28 35 15 19 1018.4 1017.7 0.0
25/10:00am 14.7 7.1 2.9 45 5.3 SSE 32 43 17 23 1018.3 1017.6 0.0
25/09:30am 13.7 5.9 2.6 47 4.9 SSE 33 43 18 23 1018.1 1017.4 0.0
25/09:00am 13.4 6.2 3.2 50 4.6 SSE 30 39 16 21 1017.9 1017.2 0.0
25/08:30am 12.9 4.9 3.6 53 4.2 S 35 44 19 24 1017.4 1016.7 0.0
25/08:00am 12.3 5.2 3.5 55 3.9 S 30 43 16 23 1017.0 1016.3 0.0
25/07:30am 11.7 4.6 3.5 57 3.7 S 30 39 16 21 1016.8 1016.1 0.0
25/07:00am 11.8 4.7 3.6 57 3.7 S 30 39 16 21 1016.3 1015.6 0.0
25/06:30am 12.0 3.9 3.3 55 3.9 S 35 46 19 25 1015.7 1015.1 0.0
25/06:00am 12.4 5.3 3.6 55 4.0 S 30 41 16 22 1015.4 1014.8 0.0
25/05:30am 12.8 5.8 4.0 55 4.0 S 30 43 16 23 1014.8 1014.1 0.0
25/05:00am 13.1 6.2 4.5 56 4.0 S 30 41 16 22 1014.4 1013.7 0.0
25/04:30am 13.3 6.3 4.2 54 4.2 S 30 41 16 22 1014.2 1013.5 0.0
25/04:00am 13.3 6.9 5.2 58 3.8 S 28 37 15 20 1013.9 1013.2 0.0
25/03:30am 13.9 8.4 5.8 58 3.9 S 24 30 13 16 1013.7 1013.0 0.0
25/03:00am 14.0 8.9 5.9 58 3.9 S 22 30 12 16 1013.7 1013.0 0.0
25/02:30am 14.2 9.7 6.3 59 3.8 SSW 19 24 10 13 1014.2 1013.5 0.0
25/02:00am 14.7 10.0 6.0 56 4.2 SSW 20 28 11 15 1014.3 1013.6 0.0
25/01:30am 15.2 9.3 6.0 54 4.5 S 26 33 14 18 1014.0 1013.3 0.0
25/01:00am 15.7 9.9 6.2 53 4.6 S 26 35 14 19 1014.3 1013.6 0.0
25/12:30am 16.1 10.0 6.5 53 4.7 S 28 39 15 21 1014.2 1013.5 0.0
25/12:00am 16.8 9.8 6.9 52 4.9 S 33 43 18 23 1013.8 1013.1 0.0
 
Date/Time
EDT
Temp
°C
App
Temp
°C
Dew
Point
°C
Rel
Hum
%
Delta-T
°C
Wind Press
QNH
hPa
Press
MSL
hPa
Rain since
9am
mm
Dir  Spd
km/h
Gust
km/h
Spd
kts
Gust
kts
24/11:30pm 17.8 11.8 7.0 49 5.4 S 28 41 15 22 1013.6 1012.9 0.0
24/11:00pm 18.0 12.4 7.1 49 5.5 S 26 32 14 17 1013.6 1012.9 0.0
24/10:30pm 18.4 12.2 7.8 50 5.4 S 30 39 16 21 1013.2 1012.5 0.0
24/10:00pm 18.6 14.0 9.7 56 4.8 S 24 33 13 18 1012.9 1012.2 0.0
24/09:30pm 18.7 14.2 10.0 57 4.7 S 24 32 13 17 1012.5 1011.8 0.0
24/09:00pm 18.6 15.0 10.7 60 4.3 SSW 20 28 11 15 1011.9 1011.2 0.0
24/08:30pm 18.7 13.6 10.5 59 4.4 SSW 28 35 15 19 1011.4 1010.7 0.0
24/08:00pm 18.7 13.2 10.5 59 4.5 SSW 30 41 16 22 1010.9 1010.2 0.0
24/07:30pm 18.7 13.4 11.3 62 4.1 SW 30 39 16 21 1010.4 1009.7 0.0
24/07:00pm 18.9 13.0 11.2 61 4.2 SW 33 43 18 23 1009.7 1009.0 0.0
24/06:30pm 19.1 13.3 11.4 61 4.3 SSW 33 44 18 24 1009.5 1008.8 0.0
24/06:00pm 19.4 13.5 11.2 59 4.5 SW 33 41 18 22 1009.4 1008.7 0.0
24/05:30pm 20.4 14.8 11.6 57 4.9 SW 32 41 17 22 1009.0 1008.3 0.0
24/05:00pm 19.3 12.8 11.6 61 4.3 SW 37 46 20 25 1009.1 1008.4 0.0
24/04:30pm 19.7 13.9 12.7 64 4.0 SW 35 46 19 25 1009.1 1008.4 0.0
24/04:00pm 18.3 12.2 13.0 71 3.0 SW 37 50 20 27 1009.2 1008.5 0.0
24/03:30pm 18.7 11.9 13.1 70 3.2 SW 41 50 22 27 1008.8 1008.1 0.0
24/03:00pm 18.9 13.0 13.7 72 3.0 SW 37 46 20 25 1008.7 1008.0 0.0
24/02:30pm 18.7 11.8 14.0 74 2.7 SW 43 52 23 28 1008.5 1007.8 0.0
24/02:00pm 18.8 12.3 15.1 79 2.2 WSW 43 54 23 29 1008.1 1007.4 0.0
24/01:30pm 18.6 12.9 16.2 86 1.4 WSW 41 52 22 28 1008.1 1007.4 0.0
24/01:00pm 17.4 11.7 17.2 99 0.1 WSW 43 56 23 30 1007.9 1007.2 0.0
24/12:30pm 17.8 12.3 17.6 99 0.1 SW 43 52 23 28 1007.7 1007.0 0.0
24/12:00pm 17.4 12.2 17.4 100 0.0 WSW 41 54 22 29 1007.4 1006.7 0.0
24/11:30am 17.0 12.0 17.0 100 0.0 WSW 39 48 21 26 1007.1 1006.4 0.0
24/11:00am 16.6 10.5 16.6 100 0.0 WSW 44 56 24 30 1006.7 1006.0 0.0
24/10:50am 16.8 10.9 16.8 100 0.0 WSW 43 61 23 33 1006.6 1005.9 0.0
24/10:30am 17.7 13.4 17.7 100 0.0 WSW 37 54 20 29 1006.2 1005.5 0.0
24/10:00am 18.1 14.9 18.1 100 0.0 WSW 32 41 17 22 1005.8 1005.1 0.0
24/09:30am 17.7 15.8 17.7 100 0.0 WNW 24 32 13 17 1005.7 1005.0 0.0
24/09:00am 17.2 14.4 17.2 100 0.0 WNW 28 33 15 18 1005.3 1004.6 16.0
24/08:30am 17.5 14.8 17.5 100 0.0 WNW 28 35 15 19 1005.3 1004.6 16.0
24/08:00am 17.6 15.2 17.4 99 0.1 WNW 26 35 14 19 1004.9 1004.1 16.0
24/07:30am 17.5 15.5 17.3 99 0.1 NW 24 33 13 18 1004.6 1003.8 16.0
24/07:00am 17.6 15.2 17.4 99 0.1 WNW 26 33 14 18 1004.1 1003.4 16.0
24/06:30am 17.5 15.1 17.3 99 0.1 WNW 26 35 14 19 1004.1 1003.4 16.0
24/06:00am 17.8 15.5 17.5 98 0.2 WNW 26 35 14 19 1003.6 1002.9 16.0
24/05:30am 17.9 14.9 17.7 99 0.1 WNW 30 37 16 20 1003.3 1002.6 16.0
24/05:00am 17.9 15.3 17.7 99 0.1 WNW 28 35 15 19 1002.8 1002.1 16.0
24/04:30am 18.3 15.3 17.8 97 0.3 NW 30 41 16 22 1002.9 1002.2 16.0
24/04:00am 18.5 16.8 17.3 93 0.7 NW 22 32 12 17 1003.0 1002.3 16.0
24/03:30am 18.7 17.9 18.4 98 0.2 NW 20 28 11 15 1003.1 1002.4 16.0
24/03:00am 18.9 18.5 18.9 100 0.0 NNW 19 24 10 13 1003.3 1002.6 16.0
24/02:30am 18.4 18.2 18.4 100 0.0 N 17 24 9 13 1003.6 1002.9 15.8
24/02:00am 18.6 18.4 18.6 100 0.0 N 17 24 9 13 1004.3 1003.6 15.8
24/01:30am 18.7 18.2 18.7 100 0.0 N 19 24 10 13 1004.8 1004.0 15.8
24/01:00am 18.9 18.3 18.9 100 0.0 N 20 28 11 15 1005.1 1004.3 15.8
24/12:30am 19.0 18.6 19.0 100 0.0 N 19 28 10 15 1005.2 1004.5 15.8
24/12:00am 19.0 18.5 19.0 100 0.0 N 20 24 11 13 1005.2 1004.5 15.8
 
Date/Time
EDT
Temp
°C
App
Temp
°C
Dew
Point
°C
Rel
Hum
%
Delta-T
°C
Wind Press
QNH
hPa
Press
MSL
hPa
Rain since
9am
mm
Dir  Spd
km/h
Gust
km/h
Spd
kts
Gust
kts
23/11:30pm 18.6 18.1 18.6 100 0.0 NNE 19 28 10 15 1005.2 1004.5 15.8
23/11:00pm 18.4 17.8 18.4 100 0.0 NNE 19 22 10 12 1005.1 1004.3 15.8
23/10:30pm 18.0 16.6 18.0 100 0.0 NNE 22 28 12 15 1005.1 1004.3 15.8
23/10:00pm 17.8 16.3 17.8 100 0.0 N 22 32 12 17 1005.1 1004.3 15.8
23/09:30pm 18.1 11.8 18.1 100 0.0 N 48 89 26 48 1004.2 1003.5 14.0
23/09:29pm 17.8 11.0 17.8 100 0.0 N 50 89 27 48 1004.1 1003.4 14.0
23/09:24pm 18.1 13.2 18.1 100 0.0 N 41 85 22 46 1004.3 1003.6 8.0
23/09:19pm 19.6 17.4 19.6 100 0.0 N 30 56 16 30 1003.4 1002.7 5.0
23/09:00pm 19.1 16.0 18.9 99 0.1 N 33 48 18 26 1002.8 1002.1 5.0
23/08:57pm 19.3 16.9 19.1 99 0.1 N 30 48 16 26 1002.5 1001.8 5.0
23/08:30pm 19.5 16.2 18.0 91 0.9 N 32 46 17 25 1002.0 1001.3 5.0
23/08:00pm 19.6 15.4 18.9 96 0.4 NNE 39 54 21 29 1001.6 1000.9 4.4
23/07:36pm 20.3 15.2 16.7 80 2.2 NNE 39 61 21 33 1002.5 1001.8 3.8
23/07:30pm 20.9 18.3 20.7 99 0.1 NNE 35 48 19 26 1001.7 1001.0 3.8
23/07:04pm 22.8 22.3 21.4 92 0.9 NE 26 44 14 24 1002.1 1001.4 3.6
23/07:00pm 22.8 23.0 22.0 95 0.5 ENE 24 32 13 17 1001.6 1000.9 3.4
23/06:30pm 26.9 24.9 15.6 50 6.9 NE 20 26 11 14 1001.5 1000.8 1.2
23/06:00pm 28.4 26.1 13.1 39 9.1 NNE 17 22 9 12 1001.6 1000.9 1.2
23/05:30pm 28.6 24.4 12.5 37 9.5 N 26 37 14 20 1001.8 1001.1 1.2
23/05:00pm 28.7 22.7 12.2 36 9.7 N 35 50 19 27 1001.9 1001.2 1.2
23/04:30pm 29.6 22.6 12.5 35 10.1 N 41 59 22 32 1002.3 1001.6 1.2
23/04:00pm 29.0 22.6 13.2 37 9.5 NNE 39 54 21 29 1003.2 1002.5 1.2
23/03:30pm 28.8 22.9 13.5 39 9.2 N 37 54 20 29 1003.7 1003.0 1.2
23/03:28pm 28.9 23.4 13.6 39 9.2 N 35 54 19 29 1003.8 1003.1 1.2
23/03:00pm 28.2 21.5 13.3 40 8.9 N 41 54 22 29 1004.0 1003.3 1.2
23/02:34pm 27.9 22.6 14.2 43 8.3 NNE 35 56 19 30 1004.3 1003.6 1.2
23/02:30pm 27.6 22.8 14.6 45 7.9 NNE 33 44 18 24 1004.5 1003.7 1.2
23/02:00pm 26.9 22.8 15.0 48 7.3 N 30 41 16 22 1004.8 1004.0 1.2
23/01:30pm 24.1 20.9 16.4 62 4.7 N 28 39 15 21 1005.2 1004.5 1.2
23/01:00pm 23.1 20.4 17.6 71 3.4 NNE 28 37 15 20 1005.7 1005.0 1.2
23/12:30pm 21.5 19.0 18.9 85 1.6 NNE 30 43 16 23 1005.7 1005.0 1.2
23/12:00pm 19.4 16.6 19.4 100 0.0 NNE 33 43 18 23 1006.7 1006.0 1.2
23/11:30am 20.4 17.7 18.5 89 1.2 N 30 43 16 23 1008.5 1007.8 0.4

Other formats

Comma delimited format used in spreadsheet applications
http://www.bom.gov.au/fwo/IDN60801/IDN60801.95485.axf

JavaScript Object Notation format (JSON) in row-major order
http://www.bom.gov.au/fwo/IDN60801/IDN60801.95485.json

Data quality

Most of these data are generated automatically and are frequently updated. Quality checks on data are not normally performed. It is possible for incorrect values to appear. Refer to information at About Latest Weather Observations and please check the disclaimer before using these data.